Hurdsfield, North Dakota
Current Conditions -  °F | °C
As of 6:55 AM on Monday 22 Dec 2014 (Local Time) from K5H4 Reporting Station
Haze Haze  
Wind Chill: 28°   Ceiling: 200
Heat Index: 28°   Visibility: 2.5mi
Dew Point: 28°   Wind: 0mph
Humidity: 100%   Direction: NA
Pressure: 29.48"   Gusts: NA
Location:  47.45°N, 99.93°W
Report Text: K5H4 221255Z AUTO 00000KT 2 1/2SM BR BKN002 OVC007 M02/M02 A2948 RMK AO2
Loading
Personal Weather Stations






























Interactive Weather Map New forecast layout! Learn more

10-Day Weather Forecast

Advertisements
Track Severe Weather on mobile